APL New Jersey — A8NM6 — position and weather

sailwx.info

Track history (hours):
 
Tides and Currents Weather Stations Pressure Air Temp Water Temp Dewpoint Dewpoint Depression Visibility Wind Speed Wind Dir Waves Ship Positions

APL New Jersey

Last reported at 2017-Mar-18 17:34 UTC. Time now 2017-Mar-24 20:05 UTC.
Position N 38°19' W 123°55'.

Length 293 m; draft 11.9 m.

Type: Cargo ship. MMSI: 636013522.

Date/timePositionNaut miles runAvg speedWind from/ knotsBaromVisibWave heightAir tempDewpointWater temp
2017-Mar-18 17:34N 38°19' W 123°55'1616.1
2017-Mar-18 16:34N 38°13' W 123°36'1615.7
2017-Mar-18 15:34N 38°06' W 123°18'1515.4
2017-Mar-18 14:34N 37°56' W 123°03'1615.8
2017-Mar-18 13:34N 37°48' W 122°46'1212.1
2017-Mar-18 12:34N 37°49' W 122°30'9 9.1
2017-Mar-18 11:32N 37°48' W 122°19'0 0.0
2017-Mar-18 10:32N 37°48' W 122°19'0 0.0
2017-Mar-18 09:32N 37°48' W 122°19'0 0.0
2017-Mar-18 08:32N 37°48' W 122°19'0 0.0
2017-Mar-18 07:32N 37°48' W 122°19'0 0.0
2017-Mar-18 06:32N 37°48' W 122°19'0 0.0
2017-Mar-18 05:32N 37°48' W 122°19'0 0.0
2017-Mar-18 04:32N 37°48' W 122°19'0 0.0
2017-Mar-18 03:32N 37°48' W 122°19'0 0.0
2017-Mar-18 02:32N 37°48' W 122°19'0 0.0
2017-Mar-18 01:32N 37°48' W 122°19'0 0.0
2017-Mar-18 00:32N 37°48' W 122°19'0 0.0
2017-Mar-17 23:32N 37°48' W 122°19'0 0.0
2017-Mar-17 22:32N 37°48' W 122°19'0 0.0
2017-Mar-17 21:32N 37°48' W 122°19'0 0.0
2017-Mar-17 20:32N 37°48' W 122°19'0 0.0
2017-Mar-17 19:32N 37°48' W 122°19'0 0.0
2017-Mar-17 18:32N 37°48' W 122°19'0 0.0
2017-Mar-17 17:32N 37°48' W 122°19'0 0.0
2017-Mar-17 16:32N 37°48' W 122°19'0 0.0
2017-Mar-17 15:32N 37°48' W 122°19'0 0.0
2017-Mar-17 14:32N 37°48' W 122°19'1 0.9
2017-Mar-17 13:33N 37°48' W 122°18'5 4.6
2017-Mar-17 12:33N 37°49' W 122°23'9 8.8
2017-Mar-17 11:34N 37°47' W 122°34'8 8.2
2017-Mar-17 10:33N 37°41' W 122°41'1312.7
2017-Mar-17 09:34N 37°28' W 122°40'1514.9
2017-Mar-17 08:33N 37°13' W 122°40'1615.6
2017-Mar-17 07:33N 36°58' W 122°36'1615.8
2017-Mar-17 06:33N 36°43' W 122°28'1616.3
2017-Mar-17 05:33N 36°28' W 122°20'1616.0
2017-Mar-17 04:33N 36°14' W 122°12'1615.8
2017-Mar-17 03:33N 35°59' W 122°05'1616.3
2017-Mar-17 02:33N 35°44' W 121°56'1717.0
2017-Mar-17 01:33N 35°30' W 121°44'1616.4
2017-Mar-17 00:33N 35°17' W 121°33'1616.4
2017-Mar-16 23:33N 35°03' W 121°22'1616.0
2017-Mar-16 22:33N 34°50' W 121°11'1615.9
2017-Mar-16 21:33N 34°37' W 120°59'1816.0
2017-Mar-16 20:26N 34°25' W 120°44'1516.8
2017-Mar-16 19:32N 34°20' W 120°26'1818.1
2017-Mar-16 18:33N 34°16' W 120°05'1919.0
2017-Mar-16 17:34N 34°11' W 119°43'1918.7
2017-Mar-16 16:33N 34°06' W 119°21'1717.3
2017-Mar-16 15:34N 33°58' W 119°03'1211.7
2017-Mar-16 14:34N 33°53' W 118°50'1211.7
2017-Mar-16 13:33N 33°47' W 118°38'1211.7
2017-Mar-16 12:33N 33°41' W 118°26'9 9.2
2017-Mar-16 11:34N 33°41' W 118°15'4 4.3
2017-Mar-16 10:34N 33°45' W 118°16'0 0.0
2017-Mar-16 09:27N 33°45' W 118°16'0 0.0
2017-Mar-16 08:33N 33°45' W 118°16'0 0.0
2017-Mar-16 07:33N 33°45' W 118°16'0 0.0
2017-Mar-16 06:33N 33°45' W 118°16'0 0.0
2017-Mar-16 05:33N 33°45' W 118°16'0 0.0
2017-Mar-16 04:33N 33°45' W 118°16'0 0.0
2017-Mar-16 03:30N 33°45' W 118°16'0 0.0
2017-Mar-16 02:33N 33°45' W 118°16'0 0.0
2017-Mar-16 01:33N 33°45' W 118°16'0 0.0
2017-Mar-16 00:33N 33°45' W 118°16'0 0.0
2017-Mar-15 23:33N 33°45' W 118°16'0 0.0
2017-Mar-15 22:33N 33°45' W 118°16'0 0.0
2017-Mar-15 21:33N 33°45' W 118°16'0 0.0
2017-Mar-15 20:33N 33°45' W 118°16'0 0.0
2017-Mar-15 19:33N 33°45' W 118°16'0 0.0
2017-Mar-15 18:33N 33°45' W 118°16'0 0.0
2017-Mar-15 17:33N 33°45' W 118°16'0 0.0
2017-Mar-15 16:33N 33°45' W 118°16'0 0.0
2017-Mar-15 15:33N 33°45' W 118°16'0 0.0
2017-Mar-15 14:33N 33°45' W 118°16'0 0.0
2017-Mar-15 13:33N 33°45' W 118°16'0 0.0
2017-Mar-15 12:33N 33°45' W 118°16'0 0.0
2017-Mar-15 11:33N 33°45' W 118°16'0 0.0
2017-Mar-15 10:33N 33°45' W 118°16'0 0.0
2017-Mar-15 09:33N 33°45' W 118°16'0 0.0
2017-Mar-15 08:33N 33°45' W 118°16'0 0.0
2017-Mar-15 07:33N 33°45' W 118°16'0 0.0
2017-Mar-15 06:33N 33°45' W 118°16'0 0.0
2017-Mar-15 05:33N 33°45' W 118°16'0 0.1
2017-Mar-15 04:33N 33°45' W 118°16'0 0.1
2017-Mar-15 03:33N 33°45' W 118°16'0 0.0
2017-Mar-15 02:33N 33°45' W 118°16'0 0.0
2017-Mar-15 01:33N 33°45' W 118°16'0 0.0
2017-Mar-15 00:33N 33°45' W 118°16'0 0.0
2017-Mar-14 23:30N 33°45' W 118°16'0 0.0
2017-Mar-14 22:30N 33°45' W 118°16'0 0.0
2017-Mar-14 21:33N 33°45' W 118°16'0 0.0
2017-Mar-14 20:30N 33°45' W 118°16'0 0.0
2017-Mar-14 19:33N 33°45' W 118°16'0 0.0
2017-Mar-14 18:33N 33°45' W 118°16'0 0.0
2017-Mar-14 17:33N 33°45' W 118°16'0 0.0
2017-Mar-14 16:30N 33°45' W 118°16'0 0.0
2017-Mar-14 15:33N 33°45' W 118°16'0 0.0
2017-Mar-14 14:33N 33°45' W 118°16'0 0.0
2017-Mar-14 13:33N 33°45' W 118°16'0 0.0
2017-Mar-14 12:33N 33°45' W 118°16'0 0.0
2017-Mar-14 11:33N 33°45' W 118°16'0 0.0
2017-Mar-14 10:33N 33°45' W 118°16'0 0.0
2017-Mar-14 09:33N 33°45' W 118°16'0 0.0
2017-Mar-14 08:30N 33°45' W 118°16'0 0.0
2017-Mar-14 07:33N 33°45' W 118°16'0 0.0
2017-Mar-14 06:33N 33°45' W 118°16'0 0.0
2017-Mar-14 05:33N 33°45' W 118°16'0 0.1
2017-Mar-14 04:33N 33°45' W 118°16'0 0.1
2017-Mar-14 03:33N 33°45' W 118°16'0 0.0
2017-Mar-14 02:33N 33°45' W 118°16'0 0.0
2017-Mar-14 01:33N 33°45' W 118°16'0 0.0
2017-Mar-14 00:33N 33°45' W 118°16'0 0.0
2017-Mar-13 23:33N 33°45' W 118°16'0 0.0
2017-Mar-13 22:33N 33°45' W 118°16'0 0.0
2017-Mar-13 21:33N 33°45' W 118°16'0 0.0
2017-Mar-13 20:30N 33°45' W 118°16'0 0.0
2017-Mar-13 19:33N 33°45' W 118°16'0 0.0
2017-Mar-13 18:30N 33°45' W 118°16'0 0.0
2017-Mar-13 17:33N 33°45' W 118°16'0 0.0
2017-Mar-13 16:33N 33°45' W 118°16'0 0.0
2017-Mar-13 15:33N 33°45' W 118°16'0 0.0
2017-Mar-13 14:33N 33°45' W 118°16'0 0.0
2017-Mar-13 13:33N 33°45' W 118°16'0 0.0
2017-Mar-13 12:33N 33°45' W 118°16'0 0.0
2017-Mar-13 11:33N 33°45' W 118°16'0 0.0
2017-Mar-13 10:33N 33°45' W 118°16'0 0.0
2017-Mar-13 09:30N 33°45' W 118°16'0 0.0
2017-Mar-13 08:33N 33°45' W 118°16'0 0.0
2017-Mar-13 07:33N 33°45' W 118°16'0 0.0
2017-Mar-13 06:33N 33°45' W 118°16'0 0.0
2017-Mar-13 05:33N 33°45' W 118°16'0 0.0
2017-Mar-13 04:33N 33°45' W 118°16'2 1.6
2017-Mar-13 03:34N 33°44' W 118°16'7 6.6
2017-Mar-13 02:34N 33°37' W 118°15'9 8.8
2017-Mar-13 01:33N 33°37' W 118°26'1111.5
2017-Mar-13 00:33N 33°40' W 118°39'7 6.9
2017-Mar-12 23:31N 33°42' W 118°47'1 0.9
2017-Mar-12 22:31N 33°42' W 118°48'1 0.6
2017-Mar-12 21:31N 33°42' W 118°49'0 0.4
2017-Mar-12 20:31N 33°42' W 118°49'0 0.2
2017-Mar-12 19:31N 33°42' W 118°50'1 0.6
2017-Mar-12 18:31N 33°42' W 118°50'7 6.9
2017-Mar-12 17:33N 33°49' W 118°51'1111.0
2017-Mar-12 16:33N 33°56' W 119°02'1413.9
2017-Mar-12 15:33N 34°02' W 119°17'1514.9
2017-Mar-12 14:34N 34°06' W 119°34'1515.4
2017-Mar-12 13:33N 34°11' W 119°52'4815.9
2017-Mar-12 10:33N 34°23' W 120°47'1616.2
2017-Mar-12 09:33N 34°27' W 121°06'1615.7
2017-Mar-12 08:33N 34°30' W 121°25'1615.7
2017-Mar-12 07:33N 34°34' W 121°43'1615.9
2017-Mar-12 06:33N 34°39' W 122°02'1615.7
2017-Mar-12 05:33N 34°43' W 122°20'1615.8
2017-Mar-12 04:33N 34°47' W 122°39'1615.7
2017-Mar-12 03:33N 34°50' W 122°57'1414.0
2017-Mar-12 02:33N 34°53' W 123°14'1312.6
2017-Mar-12 01:33N 34°57' W 123°29'2020.0
2017-Mar-12 00:33N 35°02' W 123°53'2120.8
2017-Mar-11 23:33N 35°07' W 124°17'2020.4
2017-Mar-11 22:33N 35°12' W 124°41'2020.4
2017-Mar-11 21:33N 35°17' W 125°06'2020.4
2017-Mar-11 20:33N 35°22' W 125°30'2120.8
2017-Mar-11 19:33N 35°28' W 125°54'  
Track history (hours):
 
Tides and Currents Weather Stations Pressure Air Temp Water Temp Dewpoint Dewpoint Depression Visibility Wind Speed Wind Dir Waves Ship Positions

APL New Jersey

Last reported at 2017-Mar-18 17:34 UTC. Time now 2017-Mar-24 20:05 UTC.
Position N 38°19' W 123°55'.

Length 293 m; draft 11.9 m.

Type: Cargo ship. MMSI: 636013522.

Date/timePositionNaut miles runAvg speedWind from/ knotsBaromVisibWave heightAir tempDewpointWater temp
2017-Mar-18 17:34N 38°19' W 123°55'1616.1
2017-Mar-18 16:34N 38°13' W 123°36'1615.7
2017-Mar-18 15:34N 38°06' W 123°18'1515.4
2017-Mar-18 14:34N 37°56' W 123°03'1615.8
2017-Mar-18 13:34N 37°48' W 122°46'1212.1
2017-Mar-18 12:34N 37°49' W 122°30'9 9.1
2017-Mar-18 11:32N 37°48' W 122°19'0 0.0
2017-Mar-18 10:32N 37°48' W 122°19'0 0.0
2017-Mar-18 09:32N 37°48' W 122°19'0 0.0
2017-Mar-18 08:32N 37°48' W 122°19'0 0.0
2017-Mar-18 07:32N 37°48' W 122°19'0 0.0
2017-Mar-18 06:32N 37°48' W 122°19'0 0.0
2017-Mar-18 05:32N 37°48' W 122°19'0 0.0
2017-Mar-18 04:32N 37°48' W 122°19'0 0.0
2017-Mar-18 03:32N 37°48' W 122°19'0 0.0
2017-Mar-18 02:32N 37°48' W 122°19'0 0.0
2017-Mar-18 01:32N 37°48' W 122°19'0 0.0
2017-Mar-18 00:32N 37°48' W 122°19'0 0.0
2017-Mar-17 23:32N 37°48' W 122°19'0 0.0
2017-Mar-17 22:32N 37°48' W 122°19'0 0.0
2017-Mar-17 21:32N 37°48' W 122°19'0 0.0
2017-Mar-17 20:32N 37°48' W 122°19'0 0.0
2017-Mar-17 19:32N 37°48' W 122°19'0 0.0
2017-Mar-17 18:32N 37°48' W 122°19'0 0.0
2017-Mar-17 17:32N 37°48' W 122°19'0 0.0
2017-Mar-17 16:32N 37°48' W 122°19'0 0.0
2017-Mar-17 15:32N 37°48' W 122°19'0 0.0
2017-Mar-17 14:32N 37°48' W 122°19'1 0.9
2017-Mar-17 13:33N 37°48' W 122°18'5 4.6
2017-Mar-17 12:33N 37°49' W 122°23'9 8.8
2017-Mar-17 11:34N 37°47' W 122°34'8 8.2
2017-Mar-17 10:33N 37°41' W 122°41'1312.7
2017-Mar-17 09:34N 37°28' W 122°40'1514.9
2017-Mar-17 08:33N 37°13' W 122°40'1615.6
2017-Mar-17 07:33N 36°58' W 122°36'1615.8
2017-Mar-17 06:33N 36°43' W 122°28'1616.3
2017-Mar-17 05:33N 36°28' W 122°20'1616.0
2017-Mar-17 04:33N 36°14' W 122°12'1615.8
2017-Mar-17 03:33N 35°59' W 122°05'1616.3
2017-Mar-17 02:33N 35°44' W 121°56'1717.0
2017-Mar-17 01:33N 35°30' W 121°44'1616.4
2017-Mar-17 00:33N 35°17' W 121°33'1616.4
2017-Mar-16 23:33N 35°03' W 121°22'1616.0
2017-Mar-16 22:33N 34°50' W 121°11'1615.9
2017-Mar-16 21:33N 34°37' W 120°59'1816.0
2017-Mar-16 20:26N 34°25' W 120°44'1516.8
2017-Mar-16 19:32N 34°20' W 120°26'1818.1
2017-Mar-16 18:33N 34°16' W 120°05'1919.0
2017-Mar-16 17:34N 34°11' W 119°43'1918.7
2017-Mar-16 16:33N 34°06' W 119°21'1717.3
2017-Mar-16 15:34N 33°58' W 119°03'1211.7
2017-Mar-16 14:34N 33°53' W 118°50'1211.7
2017-Mar-16 13:33N 33°47' W 118°38'1211.7
2017-Mar-16 12:33N 33°41' W 118°26'9 9.2
2017-Mar-16 11:34N 33°41' W 118°15'4 4.3
2017-Mar-16 10:34N 33°45' W 118°16'0 0.0
2017-Mar-16 09:27N 33°45' W 118°16'0 0.0
2017-Mar-16 08:33N 33°45' W 118°16'0 0.0
2017-Mar-16 07:33N 33°45' W 118°16'0 0.0
2017-Mar-16 06:33N 33°45' W 118°16'0 0.0
2017-Mar-16 05:33N 33°45' W 118°16'0 0.0
2017-Mar-16 04:33N 33°45' W 118°16'0 0.0
2017-Mar-16 03:30N 33°45' W 118°16'0 0.0
2017-Mar-16 02:33N 33°45' W 118°16'0 0.0
2017-Mar-16 01:33N 33°45' W 118°16'0 0.0
2017-Mar-16 00:33N 33°45' W 118°16'0 0.0
2017-Mar-15 23:33N 33°45' W 118°16'0 0.0
2017-Mar-15 22:33N 33°45' W 118°16'0 0.0
2017-Mar-15 21:33N 33°45' W 118°16'0 0.0
2017-Mar-15 20:33N 33°45' W 118°16'0 0.0
2017-Mar-15 19:33N 33°45' W 118°16'0 0.0
2017-Mar-15 18:33N 33°45' W 118°16'0 0.0
2017-Mar-15 17:33N 33°45' W 118°16'0 0.0
2017-Mar-15 16:33N 33°45' W 118°16'0 0.0
2017-Mar-15 15:33N 33°45' W 118°16'0 0.0
2017-Mar-15 14:33N 33°45' W 118°16'0 0.0
2017-Mar-15 13:33N 33°45' W 118°16'0 0.0
2017-Mar-15 12:33N 33°45' W 118°16'0 0.0
2017-Mar-15 11:33N 33°45' W 118°16'0 0.0
2017-Mar-15 10:33N 33°45' W 118°16'0 0.0
2017-Mar-15 09:33N 33°45' W 118°16'0 0.0
2017-Mar-15 08:33N 33°45' W 118°16'0 0.0
2017-Mar-15 07:33N 33°45' W 118°16'0 0.0
2017-Mar-15 06:33N 33°45' W 118°16'0 0.0
2017-Mar-15 05:33N 33°45' W 118°16'0 0.1
2017-Mar-15 04:33N 33°45' W 118°16'0 0.1
2017-Mar-15 03:33N 33°45' W 118°16'0 0.0
2017-Mar-15 02:33N 33°45' W 118°16'0 0.0
2017-Mar-15 01:33N 33°45' W 118°16'0 0.0
2017-Mar-15 00:33N 33°45' W 118°16'0 0.0
2017-Mar-14 23:30N 33°45' W 118°16'0 0.0
2017-Mar-14 22:30N 33°45' W 118°16'0 0.0
2017-Mar-14 21:33N 33°45' W 118°16'0 0.0
2017-Mar-14 20:30N 33°45' W 118°16'0 0.0
2017-Mar-14 19:33N 33°45' W 118°16'0 0.0
2017-Mar-14 18:33N 33°45' W 118°16'0 0.0
2017-Mar-14 17:33N 33°45' W 118°16'0 0.0
2017-Mar-14 16:30N 33°45' W 118°16'0 0.0
2017-Mar-14 15:33N 33°45' W 118°16'0 0.0
2017-Mar-14 14:33N 33°45' W 118°16'0 0.0
2017-Mar-14 13:33N 33°45' W 118°16'0 0.0
2017-Mar-14 12:33N 33°45' W 118°16'0 0.0
2017-Mar-14 11:33N 33°45' W 118°16'0 0.0
2017-Mar-14 10:33N 33°45' W 118°16'0 0.0
2017-Mar-14 09:33N 33°45' W 118°16'0 0.0
2017-Mar-14 08:30N 33°45' W 118°16'0 0.0
2017-Mar-14 07:33N 33°45' W 118°16'0 0.0
2017-Mar-14 06:33N 33°45' W 118°16'0 0.0
2017-Mar-14 05:33N 33°45' W 118°16'0 0.1
2017-Mar-14 04:33N 33°45' W 118°16'0 0.1
2017-Mar-14 03:33N 33°45' W 118°16'0 0.0
2017-Mar-14 02:33N 33°45' W 118°16'0 0.0
2017-Mar-14 01:33N 33°45' W 118°16'0 0.0
2017-Mar-14 00:33N 33°45' W 118°16'0 0.0
2017-Mar-13 23:33N 33°45' W 118°16'0 0.0
2017-Mar-13 22:33N 33°45' W 118°16'0 0.0
2017-Mar-13 21:33N 33°45' W 118°16'0 0.0
2017-Mar-13 20:30N 33°45' W 118°16'0 0.0
2017-Mar-13 19:33N 33°45' W 118°16'0 0.0
2017-Mar-13 18:30N 33°45' W 118°16'0 0.0
2017-Mar-13 17:33N 33°45' W 118°16'0 0.0
2017-Mar-13 16:33N 33°45' W 118°16'0 0.0
2017-Mar-13 15:33N 33°45' W 118°16'0 0.0
2017-Mar-13 14:33N 33°45' W 118°16'0 0.0
2017-Mar-13 13:33N 33°45' W 118°16'0 0.0
2017-Mar-13 12:33N 33°45' W 118°16'0 0.0
2017-Mar-13 11:33N 33°45' W 118°16'0 0.0
2017-Mar-13 10:33N 33°45' W 118°16'0 0.0
2017-Mar-13 09:30N 33°45' W 118°16'0 0.0
2017-Mar-13 08:33N 33°45' W 118°16'0 0.0
2017-Mar-13 07:33N 33°45' W 118°16'0 0.0
2017-Mar-13 06:33N 33°45' W 118°16'0 0.0
2017-Mar-13 05:33N 33°45' W 118°16'0 0.0
2017-Mar-13 04:33N 33°45' W 118°16'2 1.6
2017-Mar-13 03:34N 33°44' W 118°16'7 6.6
2017-Mar-13 02:34N 33°37' W 118°15'9 8.8
2017-Mar-13 01:33N 33°37' W 118°26'1111.5
2017-Mar-13 00:33N 33°40' W 118°39'7 6.9
2017-Mar-12 23:31N 33°42' W 118°47'1 0.9
2017-Mar-12 22:31N 33°42' W 118°48'1 0.6
2017-Mar-12 21:31N 33°42' W 118°49'0 0.4
2017-Mar-12 20:31N 33°42' W 118°49'0 0.2
2017-Mar-12 19:31N 33°42' W 118°50'1 0.6
2017-Mar-12 18:31N 33°42' W 118°50'7 6.9
2017-Mar-12 17:33N 33°49' W 118°51'1111.0
2017-Mar-12 16:33N 33°56' W 119°02'1413.9
2017-Mar-12 15:33N 34°02' W 119°17'1514.9
2017-Mar-12 14:34N 34°06' W 119°34'1515.4
2017-Mar-12 13:33N 34°11' W 119°52'4815.9
2017-Mar-12 10:33N 34°23' W 120°47'1616.2
2017-Mar-12 09:33N 34°27' W 121°06'1615.7
2017-Mar-12 08:33N 34°30' W 121°25'1615.7
2017-Mar-12 07:33N 34°34' W 121°43'1615.9
2017-Mar-12 06:33N 34°39' W 122°02'1615.7
2017-Mar-12 05:33N 34°43' W 122°20'1615.8
2017-Mar-12 04:33N 34°47' W 122°39'1615.7
2017-Mar-12 03:33N 34°50' W 122°57'1414.0
2017-Mar-12 02:33N 34°53' W 123°14'1312.6
2017-Mar-12 01:33N 34°57' W 123°29'2020.0
2017-Mar-12 00:33N 35°02' W 123°53'2120.8
2017-Mar-11 23:33N 35°07' W 124°17'2020.4
2017-Mar-11 22:33N 35°12' W 124°41'2020.4
2017-Mar-11 21:33N 35°17' W 125°06'2020.4
2017-Mar-11 20:33N 35°22' W 125°30'2120.8
2017-Mar-11 19:33N 35°28' W 125°54'  

Dump ship's entire track history